Time;durP1;ratioP1;P1;durP2;ratioP2;P2;SDS_P1;SDS_P2;PMS_P1;PMS_P2;Temp;Humidity;BMP_temperature;BMP_pressure;BME280_temperature;BME280_humidity;BME280_pressure;Samples;Min_cycle;Max_cycle;Signal;HPM_P1;HPM_P2
2023/12/01 06:12:53;;;;;;;127.27;57.27;;;-4.10;99.90;;;;;;4638203;29;20483;-85
2023/12/01 06:33:50;;;;;;;114.50;48.83;;;-3.10;99.90;;;;;;4480600;30;20353;-83
2023/12/01 07:29:00;;;;;;;104.30;40.67;;;-3.40;99.90;;;;;;4841006;28;20275;-81
2023/12/01 07:50:00;;;;;;;101.30;41.07;;;-4.00;99.90;;;;;;4826937;28;20376;-82
2023/12/01 08:10:20;;;;;;;85.37;36.07;;;-3.40;99.90;;;;;;4852839;28;20273;-83
2023/12/01 08:40:28;;;;;;;95.70;38.23;;;-3.60;99.90;;;;;;4815911;28;20704;-84
2023/12/01 09:00:47;;;;;;;87.73;32.23;;;-4.30;99.90;;;;;;4736037;29;20254;-82
2023/12/01 09:31:32;;;;;;;73.60;31.13;;;-4.30;99.90;;;;;;4766565;29;21050;-79
2023/12/01 10:01:22;;;;;;;69.23;28.10;;;-4.20;99.90;;;;;;4657707;29;20246;-81
2023/12/01 10:21:59;;;;;;;61.47;26.53;;;-3.80;99.90;;;;;;4712026;29;20719;-82
2023/12/01 10:47:33;;;;;;;71.50;30.80;;;-3.60;99.90;;;;;;4626889;29;20816;-83
2023/12/01 11:12:39;;;;;;;66.93;27.53;;;-3.80;99.90;;;;;;4571089;29;21082;-82
2023/12/01 11:33:13;;;;;;;65.80;27.67;;;-3.50;99.90;;;;;;4637982;29;20223;-82
2023/12/01 11:58:31;;;;;;;67.57;28.70;;;-3.60;99.90;;;;;;4535338;30;20536;-82
2023/12/01 12:53:54;;;;;;;66.40;31.53;;;-3.10;99.90;;;;;;4564805;29;20838;-80
2023/12/01 13:09:42;;;;;;;53.53;25.03;;;-3.00;99.90;;;;;;4649445;29;20245;-81
2023/12/01 13:30:04;;;;;;;56.17;25.43;;;-3.10;99.90;;;;;;4562269;30;20429;-80
2023/12/01 13:55:37;;;;;;;58.93;24.43;;;-3.30;99.90;;;;;;4603680;29;20766;-83
2023/12/01 13:59:52;;;;;;;57.70;26.63;;;-3.40;99.90;;;;;;4563815;29;20664;-79
2023/12/01 14:15:22;;;;;;;65.50;28.80;;;-3.70;99.90;;;;;;4589712;29;20557;-79
2023/12/01 14:41:01;;;;;;;66.50;28.13;;;-3.60;99.90;;;;;;4647850;29;20608;-81
2023/12/01 15:01:08;;;;;;;71.23;30.80;;;-3.40;99.90;;;;;;4674683;29;20308;-83
2023/12/01 15:26:47;;;;;;;66.50;29.53;;;-3.40;99.90;;;;;;4915920;28;20766;-82
2023/12/01 16:32:14;;;;;;;81.30;34.60;;;-4.40;99.90;;;;;;4815157;29;20212;-81
2023/12/01 17:03:08;;;;;;;96.47;38.00;;;-3.60;99.90;;;;;;4808783;29;20761;-84
2023/12/01 17:28:43;;;;;;;89.67;39.33;;;-3.40;99.90;;;;;;4872936;28;20284;-82
2023/12/01 17:33:03;;;;;;;91.57;40.37;;;-3.40;99.90;;;;;;4807138;29;21035;-83
2023/12/01 17:53:46;;;;;;;91.57;40.47;;;-3.10;99.90;;;;;;4766589;29;20224;-84
2023/12/01 18:19:08;;;;;;;91.53;41.50;;;-3.20;99.90;;;;;;4781163;29;20692;-82
2023/12/01 18:44:42;;;;;;;88.60;39.87;;;-3.20;99.90;;;;;;4748388;29;20309;-83
2023/12/01 19:15:03;;;;;;;95.27;46.90;;;-2.90;99.90;;;;;;4764519;29;20198;-82
2023/12/01 19:40:17;;;;;;;95.43;42.73;;;-2.80;99.90;;;;;;4878016;29;20649;-83
2023/12/01 20:00:21;;;;;;;75.83;38.57;;;-2.60;99.90;;;;;;4733910;29;20751;-84
2023/12/01 20:30:40;;;;;;;70.40;34.07;;;-2.50;99.90;;;;;;4684881;29;20258;-85
2023/12/01 21:11:57;;;;;;;66.40;32.30;;;-2.40;99.90;;;;;;4774135;29;20370;-84
2023/12/01 21:37:00;;;;;;;64.53;32.20;;;-2.60;99.90;;;;;;4817709;29;20421;-85
2023/12/01 21:56:55;;;;;;;60.93;33.70;;;-2.80;99.90;;;;;;4747217;29;20762;-84
2023/12/01 22:12:48;;;;;;;68.50;35.63;;;-2.90;99.90;;;;;;4747270;29;20209;-86
2023/12/01 22:38:16;;;;;;;79.90;42.30;;;-2.70;99.90;;;;;;4821468;29;20224;-84
2023/12/01 22:42:35;;;;;;;84.60;44.40;;;-3.00;99.90;;;;;;4838014;28;20453;-84
2023/12/01 23:03:30;;;;;;;92.33;44.00;;;-3.40;99.90;;;;;;4651350;30;20260;-84
2023/12/01 23:44:09;;;;;;;92.47;43.37;;;-3.80;99.90;;;;;;4782788;29;20287;-82
